CDT,Max TemperatureF,Mean TemperatureF,Min TemperatureF,Max Dew PointF,MeanDew PointF,Min DewpointF,Max Humidity, Mean Humidity, Min Humidity, Max Sea Level PressureIn, Mean Sea Level PressureIn, Min Sea Level PressureIn, Max VisibilityMiles, Mean VisibilityMiles, Min VisibilityMiles, Max Wind SpeedMPH, Mean Wind SpeedMPH, Max Gust SpeedMPH,PrecipitationIn, CloudCover, Events, WindDirDegrees
2013-5-1,79,73,66,70,66,63,100,80,60,29.91,29.87,29.82,10,9,2,17,5,28,0.07,7,Rain-Thunderstorm,85
2013-5-2,79,72,64,66,64,63,100,81,62,29.97,29.93,29.87,10,10,10,13,4,23,T,7,Rain,50
2013-5-3,68,56,44,66,53,42,100,83,66,30.06,29.98,29.92,10,10,9,17,8,24,0.01,7,Rain,311
2013-5-4,72,56,40,51,42,37,96,63,29,30.04,29.97,29.87,10,10,10,29,8,109,0.00,0,,234
2013-5-5,65,56,47,52,43,38,93,67,40,30.06,29.98,29.90,10,10,10,17,6,24,T,2,,313
2013-5-6,76,62,47,55,48,44,93,66,38,30.07,30.01,29.94,10,10,10,17,5,22,0.00,0,,283
2013-5-7,81,67,53,58,55,50,93,65,37,30.06,30.02,29.98,10,9,2,17,2,22,0.00,0,,277
2013-5-8,83,70,56,63,58,55,93,67,40,30.12,30.07,30.03,10,10,10,13,5,20,0.00,1,,191
2013-5-9,84,73,61,68,64,60,100,74,47,30.10,30.05,30.00,10,9,5,23,8,26,0.00,3,,146
2013-5-10,73,68,62,70,66,62,100,92,84,30.06,29.98,29.86,10,7,1,7,7,8,3.16,6,Rain-Thunderstorm,123
2013-5-11,79,70,61,67,64,62,100,84,67,30.08,30.00,29.94,10,8,2,10,3,28,0.59,5,Rain-Thunderstorm,174
2013-5-12,80,68,55,62,57,49,100,73,45,30.18,30.12,30.06,10,10,8,13,3,23,0.00,1,,3
2013-5-13,81,66,50,56,48,43,89,59,28,30.30,30.23,30.18,10,10,10,13,4,17,0.00,0,,75
2013-5-14,84,70,55,61,54,48,93,63,33,30.28,30.21,30.15,10,10,10,14,5,25,0.00,0,,212
2013-5-15,83,70,57,64,59,56,93,68,42,30.19,30.12,30.02,10,10,9,15,5,22,T,0,,175
2013-5-16,85,73,61,68,63,59,93,69,44,30.04,29.97,29.90,10,10,9,18,9,41,0.00,2,,157
2013-5-17,87,78,69,71,69,66,97,76,55,30.02,29.97,29.94,10,9,6,16,10,26,0.00,5,,169
2013-5-18,88,81,74,72,69,66,93,72,50,30.06,30.01,29.98,10,10,9,16,9,21,0.00,4,,176
2013-5-19,88,81,73,73,70,67,94,73,51,30.01,29.97,29.93,10,9,5,20,10,26,0.00,3,,158
2013-5-20,91,83,75,73,71,69,94,73,52,30.00,29.95,29.88,10,10,8,17,12,24,0.00,5,,159
2013-5-21,90,83,75,73,72,67,94,72,50,29.96,29.91,29.80,10,10,9,21,10,25,0.00,5,,149
2013-5-22,82,75,67,72,68,66,100,84,67,30.00,29.94,29.87,10,7,0,14,6,24,2.95,5,Fog-Rain-Thunderstorm,118
2013-5-23,90,78,66,74,70,64,100,78,55,30.06,30.02,29.96,10,7,0,23,4,30,0.05,4,Fog-Rain-Thunderstorm,121
2013-5-24,90,78,65,71,68,64,100,76,52,30.15,30.11,30.05,10,10,10,23,3,25,0.00,1,,52
2013-5-25,86,76,66,68,62,56,90,68,45,30.23,30.17,30.12,10,10,10,15,6,21,0.00,0,,78
2013-5-26,86,76,66,68,65,61,100,74,47,30.18,30.13,30.10,10,10,10,13,5,16,0.00,1,,94
2013-5-27,88,77,65,69,66,64,100,73,46,30.13,30.07,30.00,10,10,10,16,7,23,0.00,2,,140
2013-5-28,87,77,67,73,68,65,100,81,61,30.06,30.01,29.97,10,10,9,18,8,24,0.02,3,,113
2013-5-29,86,76,66,73,70,65,97,83,69,30.01,29.97,29.92,10,10,8,22,9,29,T,4,Thunderstorm,93
2013-5-30,87,80,73,77,74,72,100,83,65,29.99,29.96,29.91,10,10,9,24,9,30,0.11,5,Rain-Thunderstorm,106
2013-5-31,89,82,74,76,74,72,100,80,59,30.00,29.96,29.92,10,10,10,17,8,23,0.07,5,Rain,129